createdAt,value
2022-09-03T00:02:54.647Z,12.83
2022-09-03T00:06:21.065Z,12.77
2022-09-03T00:09:31.536Z,12.76
2022-09-03T00:12:39.518Z,12.69
2022-09-03T00:15:41.288Z,12.66
2022-09-03T00:19:04.123Z,12.67
2022-09-03T00:22:14.034Z,12.67
2022-09-03T00:25:23.081Z,12.64
2022-09-03T00:28:33.023Z,12.60
2022-09-03T00:31:43.323Z,12.59
2022-09-03T00:34:55.935Z,12.57
2022-09-03T00:37:58.529Z,12.59
2022-09-03T00:41:22.049Z,12.64
2022-09-03T00:44:38.902Z,12.64
2022-09-03T00:48:05.497Z,12.64
2022-09-03T00:51:17.466Z,12.66
2022-09-03T00:55:00.764Z,12.63
2022-09-03T00:58:11.386Z,12.63
2022-09-03T01:01:24.339Z,12.59
2022-09-03T01:04:50.434Z,12.54
2022-09-03T01:08:03.228Z,12.50
2022-09-03T01:11:10.841Z,12.46
2022-09-03T01:14:35.709Z,12.45
2022-09-03T01:17:49.525Z,12.39
2022-09-03T01:21:25.187Z,12.34
2022-09-03T01:24:59.205Z,12.29
2022-09-03T01:28:02.229Z,12.24
2022-09-03T01:31:29.746Z,12.20
2022-09-03T01:35:00.906Z,12.16
2022-09-03T01:38:08.692Z,12.14
2022-09-03T01:42:05.421Z,12.09
2022-09-03T01:45:22.999Z,12.01
2022-09-03T01:48:37.083Z,12.00
2022-09-03T01:51:38.961Z,11.97
2022-09-03T01:54:58.760Z,11.98
2022-09-03T01:58:26.576Z,11.99
2022-09-03T02:01:56.909Z,12.01
2022-09-03T02:05:02.366Z,12.00
2022-09-03T02:08:09.552Z,12.03
2022-09-03T02:11:13.382Z,12.03
2022-09-03T02:14:15.665Z,12.06
2022-09-03T02:17:17.439Z,12.08
2022-09-03T02:20:22.184Z,12.10
2022-09-03T02:23:28.276Z,12.08
2022-09-03T02:26:30.249Z,12.07
2022-09-03T02:29:33.154Z,12.09
2022-09-03T02:32:34.862Z,12.08
2022-09-03T02:35:36.643Z,12.07
2022-09-03T02:38:38.644Z,12.05
2022-09-03T02:41:40.598Z,12.05
2022-09-03T02:45:08.264Z,12.04
2022-09-03T02:48:11.551Z,12.07
2022-09-03T02:51:14.423Z,12.08
2022-09-03T02:54:20.784Z,12.10
2022-09-03T02:57:27.433Z,12.07
2022-09-03T03:00:29.500Z,12.08
2022-09-03T03:03:31.954Z,12.05
2022-09-03T03:06:33.630Z,12.02
2022-09-03T03:09:35.317Z,11.99
2022-09-03T03:12:37.853Z,11.95
2022-09-03T03:15:39.622Z,11.92
2022-09-03T03:18:41.641Z,11.91
2022-09-03T03:21:43.307Z,11.87
2022-09-03T03:24:45.016Z,11.80
2022-09-03T03:27:47.295Z,11.79
2022-09-03T03:30:49.232Z,11.73
2022-09-03T03:33:55.523Z,11.68
2022-09-03T03:36:57.258Z,11.63
2022-09-03T03:39:59.235Z,11.59
2022-09-03T03:43:00.953Z,11.53
2022-09-03T03:46:02.639Z,11.49
2022-09-03T03:49:06.779Z,11.51
2022-09-03T03:52:08.583Z,11.45
2022-09-03T03:55:10.284Z,11.44
2022-09-03T03:58:11.997Z,11.40
2022-09-03T04:01:17.247Z,11.38
2022-09-03T04:04:18.980Z,11.32
2022-09-03T04:07:20.663Z,11.26
2022-09-03T04:10:23.454Z,11.19
2022-09-03T04:13:25.689Z,11.13
2022-09-03T04:16:28.281Z,11.07
2022-09-03T04:19:30.434Z,11.05
2022-09-03T04:22:32.096Z,11.04
2022-09-03T04:25:33.892Z,11.02
2022-09-03T04:28:36.101Z,11.01
2022-09-03T04:31:39.122Z,11.01
2022-09-03T04:34:41.816Z,10.98
2022-09-03T04:37:44.695Z,10.99
2022-09-03T04:40:52.824Z,10.95
2022-09-03T04:43:56.932Z,10.87
2022-09-03T04:46:58.600Z,10.83
2022-09-03T04:50:31.534Z,10.81
2022-09-03T05:01:48.480Z,10.73
2022-09-03T05:13:23.957Z,10.74
2022-09-03T05:23:43.533Z,10.82
2022-09-03T05:26:51.034Z,10.87
2022-09-03T05:32:01.636Z,10.88
2022-09-03T05:33:54.079Z,10.98
2022-09-03T05:36:59.903Z,11.13
2022-09-03T05:40:01.829Z,11.23
2022-09-03T05:43:08.531Z,11.37
2022-09-03T05:46:11.703Z,11.53
2022-09-03T05:49:13.529Z,11.66
2022-09-03T05:52:16.776Z,11.82
2022-09-03T05:55:19.784Z,12.00
2022-09-03T05:59:02.669Z,12.16
2022-09-03T06:02:05.478Z,12.34
2022-09-03T06:05:08.144Z,12.49
2022-09-03T06:08:09.856Z,12.66
2022-09-03T06:11:14.421Z,12.81
2022-09-03T06:14:26.868Z,12.94
2022-09-03T06:17:33.119Z,13.12
2022-09-03T06:20:37.509Z,13.30
2022-09-03T06:23:39.213Z,13.46
2022-09-03T06:26:47.897Z,13.62
2022-09-03T06:29:50.046Z,13.86
2022-09-03T06:32:52.471Z,14.30
2022-09-03T06:35:58.089Z,14.46
2022-09-03T06:38:59.998Z,14.65
2022-09-03T06:42:03.739Z,14.99
2022-09-03T06:45:12.284Z,14.88
2022-09-03T06:48:14.339Z,14.75
2022-09-03T06:51:19.131Z,14.73
2022-09-03T06:54:20.871Z,14.67
2022-09-03T06:57:24.919Z,14.68
2022-09-03T07:00:26.650Z,14.77
2022-09-03T07:03:30.663Z,14.88
2022-09-03T07:06:38.697Z,14.98
2022-09-03T07:09:41.648Z,15.11
2022-09-03T07:12:48.113Z,15.14
2022-09-03T07:16:00.022Z,15.17
2022-09-03T07:19:03.724Z,15.19
2022-09-03T07:22:05.537Z,15.22
2022-09-03T07:25:07.742Z,15.25
2022-09-03T07:28:12.505Z,15.38
2022-09-03T07:31:19.247Z,15.45
2022-09-03T07:34:27.767Z,15.60
2022-09-03T07:37:29.512Z,15.68
2022-09-03T07:40:33.162Z,15.79
2022-09-03T07:43:40.006Z,15.93
2022-09-03T07:46:41.981Z,16.19
2022-09-03T07:49:43.764Z,16.47
2022-09-03T07:52:56.078Z,16.62
2022-09-03T07:56:05.569Z,16.68
2022-09-03T07:59:12.896Z,16.70
2022-09-03T08:02:14.614Z,16.75
2022-09-03T08:05:20.534Z,16.83
2022-09-03T08:08:22.491Z,16.92
2022-09-03T08:11:24.591Z,17.02
2022-09-03T08:14:26.275Z,17.07
2022-09-03T08:17:28.283Z,17.08
2022-09-03T08:20:30.064Z,17.16
2022-09-03T08:23:34.373Z,17.20
2022-09-03T08:26:38.871Z,17.28
2022-09-03T08:29:40.529Z,17.42
2022-09-03T08:32:48.767Z,17.58
2022-09-03T08:35:54.890Z,17.74
2022-09-03T08:38:58.312Z,17.84
2022-09-03T08:42:15.908Z,17.91
2022-09-03T08:45:21.371Z,17.82
2022-09-03T08:48:26.030Z,17.84
2022-09-03T08:51:28.061Z,18.01
2022-09-03T08:54:32.018Z,18.29
2022-09-03T08:57:48.199Z,18.61
2022-09-03T09:00:54.429Z,18.84
2022-09-03T09:04:37.680Z,19.01
2022-09-03T09:08:09.861Z,19.09
2022-09-03T09:11:26.874Z,18.98
2022-09-03T09:14:45.578Z,18.92
2022-09-03T09:17:59.391Z,18.96
2022-09-03T09:21:20.310Z,19.16
2022-09-03T09:24:26.478Z,19.36
2022-09-03T09:27:28.703Z,19.63
2022-09-03T09:30:34.876Z,19.71
2022-09-03T09:33:36.556Z,19.88
2022-09-03T09:36:50.506Z,20.07
2022-09-03T09:40:01.054Z,20.28
2022-09-03T09:43:08.066Z,20.50
2022-09-03T09:46:15.121Z,20.63
2022-09-03T09:49:33.167Z,20.45
2022-09-03T09:52:35.235Z,20.46
2022-09-03T09:55:48.240Z,20.45
2022-09-03T09:58:53.925Z,20.57
2022-09-03T10:02:10.338Z,20.70
2022-09-03T10:05:37.860Z,20.75
2022-09-03T10:08:48.437Z,20.95
2022-09-03T10:12:13.421Z,21.12
2022-09-03T10:15:47.694Z,21.22
2022-09-03T10:18:53.812Z,21.30
2022-09-03T10:22:06.025Z,21.40
2022-09-03T10:25:09.042Z,21.54
2022-09-03T10:28:13.927Z,21.56
2022-09-03T10:31:22.395Z,21.61
2022-09-03T10:35:11.305Z,21.67
2022-09-03T10:38:34.610Z,21.72
2022-09-03T10:41:41.235Z,21.74
2022-09-03T10:44:59.300Z,21.86
2022-09-03T10:48:22.595Z,21.93
2022-09-03T10:51:29.954Z,21.87
2022-09-03T10:54:47.867Z,21.89
2022-09-03T10:58:12.837Z,22.01
2022-09-03T11:01:27.437Z,22.10
2022-09-03T11:04:42.020Z,22.15
2022-09-03T11:07:53.234Z,22.24
2022-09-03T11:11:00.339Z,22.30
2022-09-03T11:14:25.436Z,22.28
2022-09-03T11:17:34.131Z,22.24
2022-09-03T11:20:39.235Z,22.25
2022-09-03T11:23:45.490Z,22.28
2022-09-03T11:27:09.523Z,22.36
2022-09-03T11:30:23.601Z,22.32
2022-09-03T11:33:29.248Z,22.36
2022-09-03T11:36:47.331Z,22.34
2022-09-03T11:40:13.724Z,22.29
2022-09-03T11:43:24.603Z,22.39
2022-09-03T11:46:26.357Z,22.46
2022-09-03T11:49:33.468Z,22.52
2022-09-03T11:52:40.601Z,22.57
2022-09-03T11:56:19.343Z,22.61
2022-09-03T11:59:26.597Z,22.62
2022-09-03T12:02:41.134Z,22.52
2022-09-03T12:05:48.470Z,22.56
2022-09-03T12:09:11.779Z,22.61
2022-09-03T12:12:23.887Z,22.62
2022-09-03T12:16:04.132Z,22.71
2022-09-03T12:19:36.426Z,22.75
2022-09-03T12:22:41.576Z,22.71
2022-09-03T12:25:47.410Z,22.76
2022-09-03T12:28:52.195Z,22.78
2022-09-03T12:31:56.346Z,22.72
2022-09-03T12:34:58.624Z,22.71
2022-09-03T12:38:04.590Z,22.75
2022-09-03T12:41:23.114Z,22.78
2022-09-03T12:44:33.196Z,22.79
2022-09-03T12:47:40.012Z,22.86
2022-09-03T12:50:49.457Z,22.86
2022-09-03T12:53:58.924Z,22.83
2022-09-03T12:57:01.365Z,22.88
2022-09-03T13:00:08.354Z,22.93
2022-09-03T13:03:18.192Z,22.92
2022-09-03T13:06:28.425Z,22.84
2022-09-03T13:09:33.349Z,22.88
2022-09-03T13:12:44.557Z,22.91
2022-09-03T13:16:06.340Z,22.90
2022-09-03T13:19:53.141Z,22.89
2022-09-03T13:23:16.887Z,22.93
2022-09-03T13:26:32.301Z,22.95
2022-09-03T13:29:36.838Z,23.00
2022-09-03T13:33:09.564Z,23.22
2022-09-03T13:36:31.925Z,23.35
2022-09-03T13:39:38.393Z,23.34
2022-09-03T13:42:44.020Z,23.33
2022-09-03T13:46:02.200Z,23.31
2022-09-03T13:49:52.063Z,23.26
2022-09-03T13:53:07.532Z,23.19
2022-09-03T13:56:43.643Z,23.14
2022-09-03T13:59:45.555Z,23.13
2022-09-03T14:02:50.274Z,23.12
2022-09-03T14:06:26.616Z,23.07
2022-09-03T14:09:56.116Z,23.01
2022-09-03T14:13:22.637Z,23.07
2022-09-03T14:16:55.263Z,23.03
2022-09-03T14:20:10.997Z,22.93
2022-09-03T14:23:38.480Z,23.01
2022-09-03T14:26:50.741Z,23.04
2022-09-03T14:30:05.231Z,22.99
2022-09-03T14:33:41.149Z,23.03
2022-09-03T14:37:13.166Z,22.90
2022-09-03T14:40:36.213Z,22.83
2022-09-03T14:44:04.500Z,22.83
2022-09-03T14:47:50.810Z,22.82
2022-09-03T14:51:04.724Z,22.86
2022-09-03T14:54:25.909Z,22.85
2022-09-03T14:57:45.657Z,22.88
2022-09-03T15:01:06.318Z,22.90
2022-09-03T15:04:47.324Z,22.86
2022-09-03T15:07:57.683Z,22.83
2022-09-03T15:11:01.828Z,22.82
2022-09-03T15:14:15.726Z,22.88
2022-09-03T15:17:25.808Z,22.88
2022-09-03T15:20:42.984Z,22.82
2022-09-03T15:23:56.782Z,22.72
2022-09-03T15:27:24.193Z,22.72
2022-09-03T15:30:34.416Z,22.69
2022-09-03T15:34:05.433Z,22.68
2022-09-03T15:37:43.915Z,22.64
2022-09-03T15:40:45.550Z,22.61
2022-09-03T15:43:51.154Z,22.54
2022-09-03T15:46:56.727Z,22.49
2022-09-03T15:50:27.159Z,22.42
2022-09-03T15:53:43.228Z,22.34
2022-09-03T15:56:58.983Z,22.28
2022-09-03T16:00:21.285Z,22.28
2022-09-03T16:03:46.806Z,22.23
2022-09-03T16:07:12.818Z,22.24
2022-09-03T16:10:24.747Z,22.17
2022-09-03T16:14:18.539Z,22.09
2022-09-03T16:17:33.528Z,22.06
2022-09-03T16:20:56.123Z,22.03
2022-09-03T16:24:09.676Z,21.99
2022-09-03T16:27:23.349Z,21.87
2022-09-03T16:30:58.590Z,21.80
2022-09-03T16:34:27.832Z,21.73
2022-09-03T16:38:00.301Z,21.65
2022-09-03T16:41:22.029Z,21.55
2022-09-03T16:44:50.649Z,21.48
2022-09-03T16:48:00.010Z,21.43
2022-09-03T16:51:35.767Z,21.39
2022-09-03T16:54:57.547Z,21.30
2022-09-03T16:58:34.306Z,21.19
2022-09-03T17:01:36.038Z,21.14
2022-09-03T17:05:16.113Z,21.08
2022-09-03T17:08:32.267Z,21.01
2022-09-03T17:11:57.592Z,20.96
2022-09-03T17:15:17.612Z,20.93
2022-09-03T17:18:38.208Z,20.85
2022-09-03T17:22:06.501Z,20.78
2022-09-03T17:25:35.778Z,20.72
2022-09-03T17:28:46.536Z,20.62
2022-09-03T17:32:12.968Z,20.59
2022-09-03T17:35:29.108Z,20.55
2022-09-03T17:38:42.930Z,20.52
2022-09-03T17:41:53.354Z,20.44
2022-09-03T17:45:13.150Z,20.38
2022-09-03T17:48:36.591Z,20.34
2022-09-03T17:51:47.438Z,20.30
2022-09-03T17:54:53.395Z,20.26
2022-09-03T17:58:14.776Z,20.22
2022-09-03T18:01:29.347Z,20.14
2022-09-03T18:04:43.421Z,20.07
2022-09-03T18:07:58.747Z,19.97
2022-09-03T18:11:26.027Z,19.90
2022-09-03T18:14:47.234Z,19.77
2022-09-03T18:18:03.257Z,19.71
2022-09-03T18:21:31.895Z,19.61
2022-09-03T18:25:03.681Z,19.48
2022-09-03T18:28:29.713Z,19.37
2022-09-03T18:31:50.120Z,19.23
2022-09-03T18:35:10.434Z,19.10
2022-09-03T18:38:31.936Z,18.97
2022-09-03T18:42:19.260Z,18.81
2022-09-03T18:46:46.230Z,18.67
2022-09-03T18:49:58.782Z,18.60
2022-09-03T18:53:32.952Z,18.46
2022-09-03T18:57:06.292Z,18.36
2022-09-03T19:00:30.904Z,18.22
2022-09-03T19:04:19.577Z,18.14
2022-09-03T19:07:59.899Z,17.97
2022-09-03T19:11:36.764Z,17.84
2022-09-03T19:15:26.298Z,17.71
2022-09-03T19:18:52.618Z,17.57
2022-09-03T19:22:26.968Z,17.41
2022-09-03T19:25:48.782Z,17.27
2022-09-03T19:29:20.585Z,17.14
2022-09-03T19:33:12.062Z,17.00
2022-09-03T19:37:11.850Z,16.84
2022-09-03T19:40:54.757Z,16.73
2022-09-03T19:44:35.616Z,16.57
2022-09-03T19:49:02.511Z,16.50
2022-09-03T19:52:27.737Z,16.40
2022-09-03T19:55:54.179Z,16.32
2022-09-03T19:59:19.062Z,16.23
2022-09-03T20:02:54.126Z,16.15
2022-09-03T20:06:28.407Z,16.07
2022-09-03T20:10:02.045Z,15.98
2022-09-03T20:13:10.503Z,15.90
2022-09-03T20:16:22.078Z,15.83
2022-09-03T20:19:37.723Z,15.76
2022-09-03T20:23:03.242Z,15.69
2022-09-03T20:26:31.205Z,15.61
2022-09-03T20:29:58.686Z,15.53
2022-09-03T20:33:22.947Z,15.42
2022-09-03T20:36:56.782Z,15.34
2022-09-03T20:40:17.120Z,15.27
2022-09-03T20:43:40.856Z,15.19
2022-09-03T20:47:07.604Z,15.13
2022-09-03T20:50:24.782Z,15.13
2022-09-03T20:53:32.001Z,15.14
2022-09-03T20:56:40.039Z,15.21
2022-09-03T20:59:57.528Z,15.34
2022-09-03T21:03:29.176Z,15.34
2022-09-03T21:06:50.900Z,15.33
2022-09-03T21:10:03.256Z,15.33
2022-09-03T21:13:25.376Z,15.34
2022-09-03T21:16:42.428Z,15.34
2022-09-03T21:19:55.535Z,15.30
2022-09-03T21:23:15.318Z,15.26
2022-09-03T21:26:20.609Z,15.21
2022-09-03T21:29:22.761Z,15.16
2022-09-03T21:32:34.319Z,15.12
2022-09-03T21:35:44.596Z,15.07
2022-09-03T21:39:00.672Z,14.97
2022-09-03T21:42:37.789Z,14.89
2022-09-03T21:45:51.751Z,14.85
2022-09-03T21:49:03.146Z,14.75
2022-09-03T21:52:16.338Z,14.69
2022-09-03T21:55:33.887Z,14.64
2022-09-03T21:58:58.773Z,14.55
2022-09-03T22:02:21.659Z,14.49
2022-09-03T22:05:29.000Z,14.43
2022-09-03T22:08:49.212Z,14.36
2022-09-03T22:12:30.506Z,14.33
2022-09-03T22:15:35.014Z,14.26
2022-09-03T22:18:37.976Z,14.20
2022-09-03T22:21:59.531Z,14.13
2022-09-03T22:25:08.443Z,14.06
2022-09-03T22:28:40.738Z,14.00
2022-09-03T22:31:49.903Z,13.86
2022-09-03T22:35:19.488Z,13.80
2022-09-03T22:38:49.300Z,13.74
2022-09-03T22:42:15.437Z,13.69
2022-09-03T22:45:58.180Z,13.62
2022-09-03T22:49:00.005Z,13.52
2022-09-03T22:52:21.004Z,13.49
2022-09-03T22:55:25.630Z,13.45
2022-09-03T22:58:33.461Z,13.38
2022-09-03T23:01:39.398Z,13.34
2022-09-03T23:04:56.313Z,13.30
2022-09-03T23:08:13.125Z,13.24
2022-09-03T23:11:39.639Z,13.21
2022-09-03T23:14:51.614Z,13.16
2022-09-03T23:18:06.652Z,13.13
2022-09-03T23:21:26.554Z,13.07
2022-09-03T23:24:32.560Z,13.02
2022-09-03T23:27:44.921Z,12.98
2022-09-03T23:30:46.731Z,12.92
2022-09-03T23:33:52.152Z,12.88
2022-09-03T23:37:22.435Z,12.87
2022-09-03T23:40:48.043Z,12.84
2022-09-03T23:44:03.181Z,12.79
2022-09-03T23:47:54.836Z,12.74
2022-09-03T23:51:20.553Z,12.71
2022-09-03T23:55:04.171Z,12.68
2022-09-03T23:58:21.022Z,12.64
